SPQU/AQP METAR and TAF weather

Enter ICAO airport designator
Station Type Date Time Source
SPQU METAR 2021/09/24 02:00 UTC NOAA

SPQU 240200Z 09005KT CAVOK 15/M02 Q1026 RMK PP000


Station Type Date Time Source
SPQU Decoded METAR 2021/09/24 02:00 UTC NOAA

Arequipa, Peru (SPQU) 16-19S 071-33W 2539M
Sep 23, 2021 - 10:00 PM EDT / 2021.09.24 0200 UTC
Wind: from the E (090 degrees) at 6 MPH (5 KT):0
Visibility: greater than 7 mile(s):0
Temperature: 59 F (15 C)
Dew Point: 28 F (-2 C)
Relative Humidity: 30%
Pressure (altimeter): 30.30 in. Hg (1026 hPa)
ob: SPQU 240200Z 09005KT CAVOK 15/M02 Q1026 RMK PP000
cycle: 2

Station Type Date Time Source
SPQU TAF 2021/09/24 00:37 UTC NOAA

TAF SPQU 240500Z 2400/2424 CNL

Example: see airport list